Apodaca, New Mexico
Current Conditions -  °F | °C
As of 12:15 AM on Friday 31 Oct 2014 (Local Time) from KSKX Reporting Station
Clear Clear  
Wind Chill: 36°   Ceiling: Unl
Heat Index: 41°   Visibility: 10mi
Dew Point: 16°   Wind: 8mph
Humidity: 36%   Direction: 110°ESE
Pressure: 30.43"   Gusts: NA
Location:  36.1644°N, 105.863°W
Report Text: KSKX 310615Z AUTO 11007KT 10SM CLR 05/M09 A3043 RMK AO1
Loading
Personal Weather Stations






























Interactive Weather Map New forecast layout! Learn more

10-Day Weather Forecast

Advertisements
Track Severe Weather on mobile